Time;durP1;ratioP1;P1;durP2;ratioP2;P2;SDS_P1;SDS_P2;PMS_P1;PMS_P2;Temp;Humidity;BMP_temperature;BMP_pressure;BME280_temperature;BME280_humidity;BME280_pressure;Samples;Min_cycle;Max_cycle;Signal;HPM_P1;HPM_P2
2023/08/10 00:01:56;;;;;;;5.55;1.55;;;16.30;99.90;;;;;;4786394;29;20051;-47
2023/08/10 00:04:21;;;;;;;8.05;2.08;;;16.30;99.90;;;;;;4787383;29;20069;-48
2023/08/10 00:06:47;;;;;;;6.72;1.48;;;16.20;99.90;;;;;;4792152;29;20026;-46
2023/08/10 00:09:13;;;;;;;6.35;1.73;;;16.30;99.90;;;;;;4786528;29;20051;-48
2023/08/10 00:11:39;;;;;;;6.38;1.80;;;16.30;99.90;;;;;;4786147;29;20507;-48
2023/08/10 00:14:05;;;;;;;5.13;1.52;;;16.30;99.90;;;;;;4788174;29;20082;-46
2023/08/10 00:16:31;;;;;;;5.45;1.50;;;16.20;99.90;;;;;;4786034;29;20069;-49
2023/08/10 00:18:57;;;;;;;5.93;1.48;;;16.20;99.90;;;;;;4789260;29;20415;-48
2023/08/10 00:21:24;;;;;;;6.95;1.65;;;16.30;99.90;;;;;;4790978;29;20082;-49
2023/08/10 00:23:50;;;;;;;4.53;1.63;;;16.30;99.90;;;;;;4784739;29;20043;-47
2023/08/10 00:26:16;;;;;;;4.18;1.20;;;16.30;99.90;;;;;;4786333;29;20441;-47
2023/08/10 00:28:41;;;;;;;6.07;1.65;;;16.30;99.90;;;;;;4786622;29;20421;-48
2023/08/10 00:31:07;;;;;;;8.73;1.50;;;16.30;99.90;;;;;;4785285;29;20051;-47
2023/08/10 00:33:34;;;;;;;6.38;1.42;;;16.30;99.90;;;;;;4790214;29;20898;-50
2023/08/10 00:36:06;;;;;;;4.38;1.50;;;16.30;99.90;;;;;;4784798;29;20035;-49
2023/08/10 00:38:33;;;;;;;5.53;1.85;;;16.30;99.90;;;;;;4785376;29;20123;-49
2023/08/10 00:40:59;;;;;;;7.68;2.00;;;16.30;99.90;;;;;;4782828;29;20051;-49
2023/08/10 00:43:25;;;;;;;5.95;1.60;;;16.30;99.90;;;;;;4785971;29;20468;-49
2023/08/10 00:45:52;;;;;;;4.82;1.30;;;16.30;99.90;;;;;;4787232;29;20090;-50
2023/08/10 00:48:18;;;;;;;7.57;1.38;;;16.30;99.90;;;;;;4786998;29;20104;-49
2023/08/10 00:50:44;;;;;;;5.28;1.60;;;16.30;99.90;;;;;;4785549;29;20042;-47
2023/08/10 00:53:10;;;;;;;6.82;1.70;;;16.20;99.90;;;;;;4785256;29;20070;-52
2023/08/10 00:55:35;;;;;;;6.78;1.67;;;16.20;99.90;;;;;;4791428;29;20422;-46
2023/08/10 00:58:02;;;;;;;4.53;1.70;;;16.10;99.90;;;;;;4789296;29;20039;-49
2023/08/10 01:00:28;;;;;;;5.18;1.40;;;16.10;99.90;;;;;;4786202;29;20111;-48
2023/08/10 01:02:54;;;;;;;6.45;1.70;;;16.00;99.90;;;;;;4785080;29;20517;-46
2023/08/10 01:05:19;;;;;;;5.00;1.90;;;16.00;99.90;;;;;;4784734;29;20034;-50
2023/08/10 01:08:18;;;;;;;4.85;1.60;;;15.90;99.90;;;;;;4784122;29;20108;-48
2023/08/10 01:10:54;;;;;;;4.97;1.95;;;15.90;99.90;;;;;;4787026;29;20047;-48
2023/08/10 01:13:32;;;;;;;7.10;2.10;;;15.80;99.90;;;;;;4784944;29;20079;-49
2023/08/10 01:16:04;;;;;;;4.13;1.83;;;15.80;99.90;;;;;;4783237;29;20047;-48
2023/08/10 01:18:31;;;;;;;5.03;2.00;;;15.70;99.90;;;;;;4787438;29;20468;-48
2023/08/10 01:20:59;;;;;;;5.57;2.30;;;15.20;99.90;;;;;;4783014;29;20543;-49
2023/08/10 01:23:48;;;;;;;6.80;2.40;;;15.70;99.90;;;;;;4786596;29;20038;-49
2023/08/10 01:26:15;;;;;;;6.20;2.28;;;15.80;99.90;;;;;;4786521;29;20054;-49
2023/08/10 01:28:42;;;;;;;4.93;1.90;;;15.70;99.90;;;;;;4787867;29;20133;-50
2023/08/10 01:31:08;;;;;;;7.45;2.20;;;15.80;99.90;;;;;;4801895;29;20043;-48
2023/08/10 01:33:35;;;;;;;6.22;2.20;;;15.70;99.90;;;;;;4788771;29;20099;-48
2023/08/10 01:36:01;;;;;;;8.02;2.50;;;15.70;99.90;;;;;;4790553;29;20047;-47
2023/08/10 01:38:27;;;;;;;4.35;1.80;;;15.70;99.90;;;;;;4780117;29;20031;-48
2023/08/10 01:40:52;;;;;;;5.50;1.90;;;15.60;99.90;;;;;;4789168;29;20065;-49
2023/08/10 01:43:18;;;;;;;7.95;2.42;;;15.60;99.90;;;;;;4788775;29;20039;-48
2023/08/10 01:45:51;;;;;;;6.20;2.17;;;15.50;99.90;;;;;;4788062;29;20074;-49
2023/08/10 01:48:25;;;;;;;6.20;2.30;;;15.50;99.90;;;;;;4789399;29;20070;-52
2023/08/10 01:50:52;;;;;;;6.43;2.28;;;15.50;99.90;;;;;;4789080;29;20063;-49
2023/08/10 01:53:28;;;;;;;7.55;2.60;;;15.40;99.90;;;;;;4788533;29;20078;-45
2023/08/10 01:55:54;;;;;;;5.93;2.40;;;15.40;99.90;;;;;;4788701;29;20062;-46
2023/08/10 01:58:20;;;;;;;5.60;2.20;;;15.40;99.90;;;;;;4788436;29;20138;-47
2023/08/10 02:00:46;;;;;;;6.70;2.38;;;15.40;99.90;;;;;;4789090;29;20111;-49
2023/08/10 02:03:11;;;;;;;6.40;2.60;;;15.40;99.90;;;;;;4786980;29;20059;-47
2023/08/10 02:05:37;;;;;;;7.35;2.67;;;15.40;99.90;;;;;;4785774;29;20122;-49
2023/08/10 02:08:04;;;;;;;7.68;2.53;;;15.40;99.90;;;;;;4788158;29;20476;-50
2023/08/10 02:10:29;;;;;;;6.75;2.28;;;15.40;99.90;;;;;;4787626;29;20377;-50
2023/08/10 02:12:55;;;;;;;6.45;2.20;;;15.30;99.90;;;;;;4788292;29;20053;-48
2023/08/10 02:15:21;;;;;;;6.53;2.28;;;15.30;99.90;;;;;;4786530;29;20485;-49
2023/08/10 02:17:46;;;;;;;7.82;2.33;;;15.30;99.90;;;;;;4788026;29;20055;-50
2023/08/10 02:20:12;;;;;;;7.60;2.63;;;15.30;99.90;;;;;;4786343;29;20051;-47
2023/08/10 02:22:45;;;;;;;6.80;2.70;;;15.20;99.90;;;;;;4788196;29;20055;-49
2023/08/10 02:25:11;;;;;;;8.75;2.40;;;15.20;99.90;;;;;;4803630;29;20039;-47
2023/08/10 02:27:40;;;;;;;9.98;2.65;;;15.20;99.90;;;;;;4788924;29;20052;-47
2023/08/10 02:30:07;;;;;;;9.85;2.30;;;15.10;99.90;;;;;;4788787;29;20075;-49
2023/08/10 02:32:33;;;;;;;6.47;2.47;;;15.10;99.90;;;;;;4789485;29;20039;-46
2023/08/10 02:34:59;;;;;;;5.95;2.60;;;15.00;99.90;;;;;;4788366;29;20038;-51
2023/08/10 02:37:25;;;;;;;7.20;2.55;;;15.00;99.90;;;;;;4785405;29;20044;-50
2023/08/10 02:39:51;;;;;;;7.75;2.50;;;15.00;99.90;;;;;;4785697;29;20049;-45
2023/08/10 02:42:17;;;;;;;9.10;2.55;;;15.00;99.90;;;;;;4787029;29;20055;-49
2023/08/10 02:44:44;;;;;;;6.63;2.60;;;15.00;99.90;;;;;;4798766;29;20047;-49
2023/08/10 02:47:10;;;;;;;6.00;2.40;;;15.00;99.90;;;;;;4786525;29;20070;-51
2023/08/10 02:49:35;;;;;;;10.95;3.70;;;14.90;99.90;;;;;;4788585;29;20392;-50
2023/08/10 02:52:01;;;;;;;9.00;3.00;;;14.90;99.90;;;;;;4787392;29;20046;-47
2023/08/10 02:54:27;;;;;;;8.43;3.70;;;15.00;99.90;;;;;;4787435;29;20039;-48
2023/08/10 02:56:53;;;;;;;6.45;3.50;;;15.00;99.90;;;;;;4788569;29;20420;-51
2023/08/10 02:59:18;;;;;;;9.63;3.38;;;15.00;99.90;;;;;;4787842;29;20035;-51
2023/08/10 03:01:45;;;;;;;6.32;3.63;;;14.90;99.90;;;;;;4787461;29;20050;-47
2023/08/10 03:04:11;;;;;;;7.70;3.22;;;15.00;99.90;;;;;;4789404;29;20434;-53
2023/08/10 03:06:37;;;;;;;7.60;3.38;;;15.00;99.90;;;;;;4788634;29;20130;-50
2023/08/10 03:09:03;;;;;;;7.95;3.67;;;15.00;99.90;;;;;;4784660;29;20698;-49
2023/08/10 03:11:30;;;;;;;7.43;3.67;;;15.00;99.90;;;;;;4788012;29;20143;-50
2023/08/10 03:13:56;;;;;;;12.43;4.32;;;15.00;99.90;;;;;;4786880;29;20126;-51
2023/08/10 03:16:22;;;;;;;9.02;3.90;;;15.00;99.90;;;;;;4786948;29;20515;-46
2023/08/10 03:18:47;;;;;;;8.98;3.35;;;15.00;99.90;;;;;;4793377;29;20047;-51
2023/08/10 03:21:13;;;;;;;6.53;3.45;;;14.90;99.90;;;;;;4787555;29;20496;-50
2023/08/10 03:23:39;;;;;;;8.00;3.85;;;15.00;99.90;;;;;;4786622;29;20067;-50
2023/08/10 03:26:04;;;;;;;8.60;4.63;;;15.00;99.90;;;;;;4786427;29;20035;-49
2023/08/10 03:28:30;;;;;;;10.75;4.10;;;15.00;99.90;;;;;;4785130;29;20040;-49
2023/08/10 03:30:56;;;;;;;6.63;3.72;;;15.00;99.90;;;;;;4786122;29;20388;-45
2023/08/10 03:33:22;;;;;;;7.68;4.40;;;15.00;99.90;;;;;;4788719;29;20043;-51
2023/08/10 03:35:47;;;;;;;9.27;4.28;;;15.00;99.90;;;;;;4785196;29;20043;-51
2023/08/10 03:38:13;;;;;;;8.40;5.15;;;15.00;99.90;;;;;;4792473;29;20034;-49
2023/08/10 03:40:39;;;;;;;7.95;4.47;;;15.00;99.90;;;;;;4785847;29;20046;-48
2023/08/10 03:43:04;;;;;;;6.65;4.40;;;15.10;99.90;;;;;;4788802;29;20055;-49
2023/08/10 03:45:30;;;;;;;8.55;3.80;;;15.10;99.90;;;;;;4785870;29;20031;-50
2023/08/10 03:47:56;;;;;;;9.75;4.72;;;15.00;99.90;;;;;;4784642;29;20113;-49
2023/08/10 03:50:22;;;;;;;8.57;4.50;;;15.10;99.90;;;;;;4785518;29;20125;-50
2023/08/10 03:52:47;;;;;;;10.70;4.75;;;15.00;99.90;;;;;;4785596;29;20078;-49
2023/08/10 03:55:14;;;;;;;9.82;4.60;;;15.00;99.90;;;;;;4787696;29;20053;-49
2023/08/10 03:57:41;;;;;;;7.97;4.20;;;14.90;99.90;;;;;;4787025;29;20115;-47
2023/08/10 04:00:07;;;;;;;8.80;4.78;;;14.90;99.90;;;;;;4785207;29;20047;-49
2023/08/10 04:02:33;;;;;;;10.35;4.63;;;14.90;99.90;;;;;;4793468;29;20058;-49
2023/08/10 04:05:04;;;;;;;9.60;4.82;;;14.80;99.90;;;;;;4785945;29;20039;-49
2023/08/10 04:07:30;;;;;;;8.73;4.28;;;14.80;99.90;;;;;;4786007;29;20077;-50
2023/08/10 04:09:56;;;;;;;9.60;4.80;;;14.80;99.90;;;;;;4790914;29;20043;-48
2023/08/10 04:12:22;;;;;;;8.50;4.72;;;14.80;99.90;;;;;;4784991;29;20047;-51
2023/08/10 04:14:48;;;;;;;8.80;5.07;;;14.80;99.90;;;;;;4787492;29;20396;-50
2023/08/10 04:17:15;;;;;;;9.35;4.72;;;14.80;99.90;;;;;;4789309;29;20046;-47
2023/08/10 04:19:41;;;;;;;10.10;4.97;;;14.80;99.90;;;;;;4786469;29;20074;-50
2023/08/10 04:22:06;;;;;;;9.68;4.57;;;14.80;99.90;;;;;;4793014;29;20134;-52
2023/08/10 04:24:32;;;;;;;8.48;4.00;;;14.70;99.90;;;;;;4791551;29;20458;-46
2023/08/10 04:26:57;;;;;;;9.63;4.65;;;14.80;99.90;;;;;;4785182;29;20070;-49
2023/08/10 04:29:26;;;;;;;7.18;4.63;;;14.70;99.90;;;;;;4785721;29;20042;-48
2023/08/10 04:31:52;;;;;;;8.30;4.30;;;14.70;99.90;;;;;;4784300;29;20238;-49
2023/08/10 04:34:18;;;;;;;8.50;4.63;;;14.80;99.90;;;;;;4786192;29;20652;-51
2023/08/10 04:36:43;;;;;;;9.13;4.75;;;14.80;99.90;;;;;;4792366;29;20050;-47
2023/08/10 04:39:09;;;;;;;8.20;4.38;;;14.90;99.90;;;;;;4786231;29;20039;-49
2023/08/10 04:41:35;;;;;;;6.72;4.30;;;14.90;99.90;;;;;;4791723;29;20048;-47
2023/08/10 04:44:00;;;;;;;10.48;4.97;;;14.80;99.90;;;;;;4786553;29;20496;-47
2023/08/10 04:46:26;;;;;;;12.20;4.15;;;14.90;99.90;;;;;;4785966;29;20116;-46
2023/08/10 04:48:53;;;;;;;10.55;4.40;;;14.90;99.90;;;;;;4787638;29;20473;-50
2023/08/10 04:51:18;;;;;;;8.57;4.43;;;14.90;99.90;;;;;;4785217;29;20039;-47
2023/08/10 04:53:44;;;;;;;8.43;4.28;;;14.90;99.90;;;;;;4786680;29;20043;-52
2023/08/10 04:56:10;;;;;;;10.32;4.75;;;15.00;99.90;;;;;;4785515;29;20543;-48
2023/08/10 04:58:35;;;;;;;9.30;4.68;;;14.90;99.90;;;;;;4783906;29;20043;-48
2023/08/10 05:01:03;;;;;;;8.57;4.53;;;15.00;99.90;;;;;;4790602;29;20066;-50
2023/08/10 05:03:29;;;;;;;8.23;4.45;;;15.00;99.90;;;;;;4793892;29;20043;-52
2023/08/10 05:05:55;;;;;;;11.00;4.82;;;15.00;99.90;;;;;;4788686;29;20035;-49
2023/08/10 05:08:22;;;;;;;8.52;3.50;;;15.00;99.90;;;;;;4790109;29;20043;-48
2023/08/10 05:10:47;;;;;;;10.57;4.10;;;15.00;99.90;;;;;;4789048;29;20034;-51
2023/08/10 05:13:13;;;;;;;7.75;4.20;;;15.10;99.90;;;;;;4791173;29;20051;-49
2023/08/10 05:15:39;;;;;;;7.95;4.38;;;15.00;99.90;;;;;;4788996;29;20035;-47
2023/08/10 05:18:05;;;;;;;11.43;4.50;;;15.10;99.90;;;;;;4787833;29;20484;-49
2023/08/10 05:20:31;;;;;;;7.95;5.10;;;15.10;99.90;;;;;;4787380;29;20158;-47
2023/08/10 05:22:57;;;;;;;9.10;4.40;;;15.10;99.90;;;;;;4791983;29;20039;-50
2023/08/10 05:25:23;;;;;;;8.77;3.55;;;15.10;99.90;;;;;;4788728;29;20043;-48
2023/08/10 05:27:48;;;;;;;7.65;4.60;;;15.20;99.90;;;;;;4788819;29;20454;-50
2023/08/10 05:30:14;;;;;;;8.45;4.20;;;15.20;99.90;;;;;;4786712;29;20130;-49
2023/08/10 05:32:43;;;;;;;8.57;4.35;;;15.20;99.90;;;;;;4795248;29;20507;-49
2023/08/10 05:35:10;;;;;;;8.55;3.60;;;15.20;99.90;;;;;;4789140;29;20039;-48
2023/08/10 05:37:37;;;;;;;8.70;3.83;;;15.30;99.90;;;;;;4789976;29;20092;-50
2023/08/10 05:40:09;;;;;;;9.38;4.13;;;15.30;99.90;;;;;;4789689;29;20044;-49
2023/08/10 05:42:35;;;;;;;8.43;4.60;;;15.40;99.90;;;;;;4787041;29;20059;-49
2023/08/10 05:45:01;;;;;;;8.05;4.13;;;15.40;99.90;;;;;;4788110;29;20384;-47
2023/08/10 05:47:27;;;;;;;11.43;4.25;;;15.50;99.90;;;;;;4791976;29;20059;-50
2023/08/10 05:49:52;;;;;;;9.70;3.90;;;15.60;99.90;;;;;;4785087;29;20038;-49
2023/08/10 05:52:18;;;;;;;8.27;4.15;;;15.70;99.90;;;;;;4789664;29;20039;-49
2023/08/10 05:54:47;;;;;;;10.35;3.97;;;15.60;99.90;;;;;;4793229;29;20043;-46
2023/08/10 05:57:12;;;;;;;7.20;3.80;;;15.60;99.90;;;;;;4785601;29;20047;-50
2023/08/10 05:59:38;;;;;;;8.50;3.85;;;15.60;99.90;;;;;;4787164;29;20039;-48
2023/08/10 06:02:04;;;;;;;9.77;4.20;;;15.70;99.90;;;;;;4789134;29;20131;-49
2023/08/10 06:04:29;;;;;;;9.55;3.85;;;15.70;99.90;;;;;;4789475;29;20051;-46
2023/08/10 06:06:55;;;;;;;9.07;3.80;;;15.60;99.90;;;;;;4787515;29;20040;-49
2023/08/10 06:09:21;;;;;;;7.93;3.33;;;15.70;99.90;;;;;;4789446;29;20043;-49
2023/08/10 06:11:47;;;;;;;8.77;4.20;;;15.70;99.90;;;;;;4783769;29;20047;-47
2023/08/10 06:14:12;;;;;;;8.18;4.00;;;15.80;99.90;;;;;;4789650;29;20058;-49
2023/08/10 06:16:38;;;;;;;9.45;4.45;;;15.90;99.90;;;;;;4787938;29;20089;-52
2023/08/10 06:19:04;;;;;;;10.10;3.65;;;15.80;99.90;;;;;;4787115;29;20050;-50
2023/08/10 06:21:30;;;;;;;6.75;4.00;;;15.90;99.90;;;;;;4790441;29;20043;-47
2023/08/10 06:23:56;;;;;;;8.43;4.20;;;15.90;99.90;;;;;;4788936;29;20161;-47
2023/08/10 06:26:22;;;;;;;8.38;4.13;;;16.00;99.90;;;;;;4788769;29;20041;-49
2023/08/10 06:28:48;;;;;;;10.82;4.25;;;16.00;99.90;;;;;;4788524;29;20043;-47
2023/08/10 06:31:13;;;;;;;7.40;3.55;;;15.90;99.90;;;;;;4789477;29;20403;-50
2023/08/10 06:33:39;;;;;;;8.20;3.92;;;16.00;99.90;;;;;;4788677;29;20031;-47
2023/08/10 06:36:06;;;;;;;11.80;3.80;;;16.00;99.90;;;;;;4786892;29;20138;-50
2023/08/10 06:38:34;;;;;;;6.93;3.70;;;16.00;99.90;;;;;;4787594;29;20122;-48
2023/08/10 06:41:00;;;;;;;9.27;3.63;;;16.00;99.90;;;;;;4794983;29;20050;-47
2023/08/10 06:43:26;;;;;;;8.13;3.17;;;16.10;99.90;;;;;;4788931;29;20145;-49
2023/08/10 06:45:51;;;;;;;9.43;3.88;;;16.10;99.90;;;;;;4787311;29;20123;-50
2023/08/10 06:48:17;;;;;;;7.90;2.92;;;16.20;99.90;;;;;;4788074;29;20116;-46
2023/08/10 06:50:43;;;;;;;8.55;3.15;;;16.20;99.90;;;;;;4784362;29;20042;-51
2023/08/10 06:53:09;;;;;;;8.75;3.70;;;16.20;99.90;;;;;;4787231;29;20100;-48
2023/08/10 06:55:35;;;;;;;6.13;3.42;;;16.30;99.90;;;;;;4788962;29;20523;-51
2023/08/10 06:58:02;;;;;;;5.65;3.58;;;16.30;99.90;;;;;;4793694;29;20067;-51
2023/08/10 07:00:28;;;;;;;7.97;3.22;;;16.50;99.90;;;;;;4787982;29;20035;-51
2023/08/10 07:02:54;;;;;;;7.38;2.97;;;16.50;99.90;;;;;;4787579;29;20051;-49
2023/08/10 07:05:21;;;;;;;7.32;2.75;;;16.50;99.90;;;;;;4789378;29;20114;-49
2023/08/10 07:07:47;;;;;;;9.55;3.20;;;16.60;99.90;;;;;;4787836;29;20054;-51
2023/08/10 07:10:14;;;;;;;7.45;2.55;;;16.60;99.90;;;;;;4788650;29;20047;-49
2023/08/10 07:12:40;;;;;;;5.88;2.65;;;16.70;99.90;;;;;;4790136;29;20050;-49
2023/08/10 07:15:09;;;;;;;7.13;2.90;;;16.70;99.90;;;;;;4787764;29;20445;-48
2023/08/10 07:17:35;;;;;;;7.38;2.60;;;16.70;99.90;;;;;;4786626;29;20047;-50
2023/08/10 07:20:04;;;;;;;4.85;2.33;;;16.80;99.90;;;;;;4791401;29;20508;-50
2023/08/10 07:22:30;;;;;;;6.35;2.28;;;16.90;99.90;;;;;;4786528;29;20040;-49
2023/08/10 07:25:00;;;;;;;9.68;2.65;;;16.90;99.90;;;;;;4787115;29;20035;-47
2023/08/10 07:27:26;;;;;;;6.72;2.20;;;17.00;99.90;;;;;;4785530;29;20031;-49
2023/08/10 07:29:51;;;;;;;8.93;2.30;;;17.10;99.90;;;;;;4770149;29;20050;-47
2023/08/10 07:32:19;;;;;;;6.68;2.47;;;17.10;99.90;;;;;;4786248;29;20047;-50
2023/08/10 07:34:45;;;;;;;4.55;2.10;;;17.20;99.90;;;;;;4786458;29;20069;-51
2023/08/10 07:37:10;;;;;;;5.93;2.00;;;17.20;99.90;;;;;;4784919;29;20039;-50
2023/08/10 07:39:36;;;;;;;7.22;2.70;;;17.20;99.90;;;;;;4790738;29;20381;-48
2023/08/10 07:42:02;;;;;;;4.45;2.10;;;17.20;99.90;;;;;;4786875;29;20046;-49
2023/08/10 07:44:29;;;;;;;8.75;2.25;;;17.20;99.90;;;;;;4786952;29;20038;-49
2023/08/10 07:46:55;;;;;;;6.05;2.05;;;17.30;99.90;;;;;;4767799;29;20067;-49
2023/08/10 07:49:20;;;;;;;6.60;2.25;;;17.30;99.90;;;;;;4786635;29;20404;-50
2023/08/10 07:51:47;;;;;;;7.55;2.28;;;17.30;99.90;;;;;;4787469;29;20051;-48
2023/08/10 07:54:14;;;;;;;5.75;1.95;;;17.30;99.90;;;;;;4787977;29;20046;-49
2023/08/10 07:56:40;;;;;;;8.65;2.10;;;17.30;99.90;;;;;;4784946;29;20518;-51
2023/08/10 07:59:06;;;;;;;6.80;2.20;;;17.50;99.90;;;;;;4784687;29;20055;-53
2023/08/10 08:01:32;;;;;;;5.50;1.80;;;17.60;99.90;;;;;;4786017;29;20101;-51
2023/08/10 08:03:57;;;;;;;6.13;1.60;;;17.70;99.90;;;;;;4784551;29;20484;-51
2023/08/10 08:06:23;;;;;;;5.90;1.60;;;17.80;99.90;;;;;;4785742;29;20035;-53
2023/08/10 08:08:49;;;;;;;5.28;1.75;;;17.80;99.90;;;;;;4785229;29;20496;-51
2023/08/10 08:11:15;;;;;;;7.85;1.52;;;17.90;99.90;;;;;;4783306;29;20039;-49
2023/08/10 08:13:42;;;;;;;5.47;1.30;;;17.80;99.90;;;;;;4786774;29;20119;-54
2023/08/10 08:16:07;;;;;;;4.75;1.27;;;18.00;99.90;;;;;;4785598;29;20039;-52
2023/08/10 08:18:43;;;;;;;4.80;1.35;;;18.00;99.90;;;;;;4785609;29;20555;-49
2023/08/10 08:21:14;;;;;;;5.10;1.20;;;18.20;99.90;;;;;;4784343;29;20053;-52
2023/08/10 08:23:40;;;;;;;4.88;1.00;;;18.20;99.90;;;;;;4786751;29;20042;-51
2023/08/10 08:26:06;;;;;;;4.53;1.10;;;18.20;99.90;;;;;;4766190;29;20541;-51
2023/08/10 08:28:31;;;;;;;4.63;1.10;;;18.30;99.90;;;;;;4768887;29;20055;-48
2023/08/10 08:30:58;;;;;;;4.43;1.20;;;18.40;99.90;;;;;;4783762;29;20078;-50
2023/08/10 08:33:23;;;;;;;3.22;1.13;;;18.50;99.90;;;;;;4784616;29;20059;-52
2023/08/10 08:35:50;;;;;;;7.45;1.13;;;18.60;99.90;;;;;;4790557;29;20116;-52
2023/08/10 08:38:20;;;;;;;4.47;1.20;;;18.70;99.90;;;;;;4788424;29;20050;-49
2023/08/10 08:40:48;;;;;;;6.40;1.30;;;18.80;99.90;;;;;;4778261;29;20042;-51
2023/08/10 08:43:14;;;;;;;4.88;1.42;;;18.70;99.90;;;;;;4791782;29;20705;-50
2023/08/10 08:45:40;;;;;;;6.15;1.27;;;18.90;99.90;;;;;;4787269;29;20042;-52
2023/08/10 08:48:07;;;;;;;5.65;1.40;;;18.90;99.90;;;;;;4786919;29;20478;-51
2023/08/10 08:50:36;;;;;;;8.27;1.40;;;18.90;99.90;;;;;;4803874;29;20126;-53
2023/08/10 08:53:06;;;;;;;5.43;1.58;;;18.90;99.90;;;;;;4788739;29;20084;-52
2023/08/10 08:55:32;;;;;;;5.32;1.30;;;18.90;99.90;;;;;;4788518;29;20044;-50
2023/08/10 08:57:58;;;;;;;4.93;1.45;;;19.00;99.90;;;;;;4787810;29;20380;-54
2023/08/10 09:00:24;;;;;;;5.63;1.42;;;19.10;99.90;;;;;;4786255;29;20043;-51
2023/08/10 09:02:51;;;;;;;6.15;1.60;;;19.10;99.90;;;;;;4787545;29;20407;-50
2023/08/10 09:05:17;;;;;;;3.85;1.20;;;19.10;99.90;;;;;;4787963;29;20047;-52
2023/08/10 09:07:44;;;;;;;6.40;1.50;;;19.20;99.90;;;;;;4787703;29;20042;-50
2023/08/10 09:10:09;;;;;;;4.72;1.40;;;19.20;99.90;;;;;;4790097;29;20104;-52
2023/08/10 09:12:37;;;;;;;5.97;1.50;;;19.20;99.90;;;;;;4788496;29;20039;-53
2023/08/10 09:15:11;;;;;;;4.72;1.48;;;19.20;99.90;;;;;;4790019;29;20112;-50
2023/08/10 09:17:47;;;;;;;5.55;1.50;;;19.20;99.90;;;;;;4787446;29;20051;-50
2023/08/10 09:20:18;;;;;;;6.18;1.42;;;19.20;99.90;;;;;;4787252;29;20050;-51
2023/08/10 09:22:45;;;;;;;4.18;1.35;;;19.30;99.90;;;;;;4788376;29;20456;-52
2023/08/10 09:25:11;;;;;;;6.07;1.65;;;19.30;99.90;;;;;;4788886;29;20035;-53
2023/08/10 09:27:37;;;;;;;3.95;1.20;;;19.40;99.90;;;;;;4788247;29;20408;-52
2023/08/10 09:30:05;;;;;;;4.28;1.45;;;19.50;99.90;;;;;;4786532;29;20039;-53
2023/08/10 09:32:32;;;;;;;5.07;1.70;;;19.60;99.90;;;;;;4782660;29;20055;-52
2023/08/10 09:34:57;;;;;;;4.38;1.60;;;19.70;99.90;;;;;;4787638;29;20480;-52
2023/08/10 09:37:24;;;;;;;4.15;1.70;;;19.80;99.90;;;;;;4788363;29;20051;-50
2023/08/10 09:40:00;;;;;;;7.57;1.73;;;20.00;99.90;;;;;;4787307;29;20035;-51
2023/08/10 09:42:30;;;;;;;5.65;1.73;;;20.00;99.90;;;;;;4785806;29;20043;-50
2023/08/10 09:44:58;;;;;;;5.82;1.30;;;20.00;99.90;;;;;;4787100;29;20125;-50
2023/08/10 09:47:24;;;;;;;8.23;1.63;;;20.00;99.90;;;;;;4783077;29;20059;-53
2023/08/10 09:49:54;;;;;;;3.67;1.40;;;20.00;99.90;;;;;;4786599;29;20063;-52
2023/08/10 09:52:20;;;;;;;5.45;1.30;;;20.00;99.90;;;;;;4787494;29;20411;-50
2023/08/10 09:54:47;;;;;;;4.55;1.48;;;19.90;99.90;;;;;;4788901;29;20051;-51
2023/08/10 09:57:14;;;;;;;5.35;1.30;;;19.90;99.90;;;;;;4787865;29;20054;-48
2023/08/10 09:59:40;;;;;;;6.28;1.30;;;19.90;99.90;;;;;;4796739;29;20137;-49
2023/08/10 10:02:09;;;;;;;4.05;1.40;;;20.00;99.90;;;;;;4788403;29;20471;-52
2023/08/10 10:04:36;;;;;;;5.53;1.52;;;20.10;99.90;;;;;;4788604;29;20043;-52
2023/08/10 10:07:01;;;;;;;4.88;1.50;;;20.20;99.90;;;;;;4788532;29;20052;-49
2023/08/10 10:09:33;;;;;;;6.07;1.67;;;20.20;99.90;;;;;;4789090;29;20468;-52
2023/08/10 10:12:00;;;;;;;6.72;1.52;;;20.30;99.90;;;;;;4787956;29;20050;-50
2023/08/10 10:14:27;;;;;;;7.75;1.48;;;20.30;99.90;;;;;;4789367;29;20043;-53
2023/08/10 10:16:53;;;;;;;6.72;1.90;;;20.30;99.90;;;;;;4787531;29;20063;-51
2023/08/10 10:19:20;;;;;;;4.85;1.60;;;20.20;99.90;;;;;;4788287;29;20518;-50
2023/08/10 10:21:47;;;;;;;5.70;1.70;;;20.20;99.90;;;;;;4786104;29;20066;-50
2023/08/10 10:24:17;;;;;;;5.63;1.48;;;20.30;99.90;;;;;;4786249;29;20607;-49
2023/08/10 10:27:01;;;;;;;3.97;1.42;;;20.30;99.90;;;;;;4786556;29;20108;-50
2023/08/10 10:29:43;;;;;;;5.65;1.65;;;20.40;99.90;;;;;;4784615;29;21233;-52
2023/08/10 10:32:16;;;;;;;5.10;1.90;;;20.50;99.90;;;;;;4788759;29;20145;-49
2023/08/10 10:34:43;;;;;;;5.38;1.52;;;20.50;99.90;;;;;;4786603;29;20415;-52
2023/08/10 10:37:35;;;;;;;3.85;1.55;;;20.50;99.90;;;;;;4785795;29;20077;-50
2023/08/10 10:40:22;;;;;;;4.18;1.67;;;20.50;99.90;;;;;;4788450;29;20078;-50
2023/08/10 10:43:03;;;;;;;6.68;1.63;;;20.60;99.90;;;;;;4784894;29;20051;-50
2023/08/10 10:45:43;;;;;;;5.60;1.88;;;20.60;99.90;;;;;;4786871;29;20031;-51
2023/08/10 10:48:13;;;;;;;4.35;1.60;;;20.60;99.90;;;;;;4783308;29;20731;-51
2023/08/10 10:50:39;;;;;;;6.13;1.98;;;20.60;99.90;;;;;;4804128;29;20085;-51
2023/08/10 10:53:10;;;;;;;6.97;2.25;;;20.60;99.90;;;;;;4817117;29;20055;-52
2023/08/10 10:55:35;;;;;;;4.53;2.03;;;20.60;99.90;;;;;;4803082;29;20055;-52
2023/08/10 10:58:03;;;;;;;5.85;2.15;;;20.70;99.90;;;;;;4804125;29;20057;-53
2023/08/10 11:00:29;;;;;;;5.68;2.20;;;20.80;99.90;;;;;;4804430;29;20054;-51
2023/08/10 11:02:55;;;;;;;6.13;2.40;;;20.80;99.90;;;;;;4804863;29;20051;-50
2023/08/10 11:05:20;;;;;;;4.63;2.33;;;21.00;99.90;;;;;;4804655;29;20035;-50
2023/08/10 11:07:48;;;;;;;5.28;2.20;;;21.10;99.90;;;;;;4804189;29;20050;-50
2023/08/10 11:10:15;;;;;;;4.82;2.10;;;21.20;99.90;;;;;;4803143;29;20086;-52
2023/08/10 11:12:42;;;;;;;6.03;2.17;;;21.30;99.90;;;;;;4804619;29;20074;-52
2023/08/10 11:15:10;;;;;;;4.88;2.13;;;21.40;99.90;;;;;;4804616;29;20049;-49
2023/08/10 11:17:37;;;;;;;8.07;2.25;;;21.50;99.90;;;;;;4800899;29;20039;-52
2023/08/10 11:20:12;;;;;;;6.32;1.98;;;21.60;99.90;;;;;;4802675;29;20399;-51
2023/08/10 11:22:42;;;;;;;5.22;2.17;;;21.70;99.90;;;;;;4800021;29;20050;-52
2023/08/10 11:25:19;;;;;;;6.30;2.30;;;21.80;99.90;;;;;;4801821;29;20047;-50
2023/08/10 11:27:47;;;;;;;6.05;2.38;;;21.90;99.90;;;;;;4802150;29;20049;-53
2023/08/10 11:30:17;;;;;;;6.80;2.72;;;22.00;99.90;;;;;;4802005;29;20058;-50
2023/08/10 11:32:49;;;;;;;7.03;2.60;;;22.10;99.90;;;;;;4800440;29;20099;-51
2023/08/10 11:35:18;;;;;;;7.82;2.58;;;22.20;99.90;;;;;;4811242;29;20480;-51
2023/08/10 11:37:45;;;;;;;5.45;2.92;;;22.40;99.90;;;;;;4800018;29;20074;-52
2023/08/10 11:40:12;;;;;;;6.82;2.58;;;22.50;99.90;;;;;;4801473;29;20050;-51
2023/08/10 11:42:40;;;;;;;8.20;3.22;;;22.60;99.90;;;;;;4802887;29;20082;-50
2023/08/10 11:45:08;;;;;;;4.60;2.00;;;22.80;99.90;;;;;;4801401;29;20053;-52
2023/08/10 11:47:46;;;;;;;5.57;2.50;;;23.10;99.90;;;;;;4800214;29;20065;-52
2023/08/10 11:50:16;;;;;;;7.47;2.85;;;23.40;99.90;;;;;;4801186;29;20050;-53
2023/08/10 11:52:42;;;;;;;6.25;3.00;;;23.60;99.90;;;;;;4801379;29;20069;-51
2023/08/10 11:55:12;;;;;;;4.63;2.47;;;23.60;99.90;;;;;;4800053;29;20038;-50
2023/08/10 11:57:46;;;;;;;5.82;2.67;;;23.50;99.90;;;;;;4815558;29;20031;-49
2023/08/10 12:00:18;;;;;;;6.90;2.95;;;23.50;99.90;;;;;;4800849;29;20510;-49
2023/08/10 12:03:01;;;;;;;6.63;2.92;;;23.60;99.90;;;;;;4801905;29;20043;-50
2023/08/10 12:05:36;;;;;;;7.45;3.00;;;23.80;99.90;;;;;;4801058;29;20031;-51
2023/08/10 12:08:10;;;;;;;5.15;2.90;;;24.00;99.90;;;;;;4802591;29;20051;-50
2023/08/10 12:10:37;;;;;;;7.72;3.10;;;24.10;99.90;;;;;;4802870;29;20054;-51
2023/08/10 12:13:05;;;;;;;6.88;2.95;;;24.10;99.90;;;;;;4802227;29;20046;-52
2023/08/10 12:15:32;;;;;;;6.15;3.08;;;24.10;99.90;;;;;;4801779;29;20042;-52
2023/08/10 12:17:58;;;;;;;6.40;3.42;;;24.00;99.90;;;;;;4802371;29;20058;-51
2023/08/10 12:20:24;;;;;;;6.78;3.30;;;23.90;99.90;;;;;;4802360;29;20093;-51
2023/08/10 12:22:50;;;;;;;6.82;3.17;;;23.80;99.90;;;;;;4801585;29;20043;-52
2023/08/10 12:25:15;;;;;;;7.53;3.28;;;23.70;99.90;;;;;;4802014;29;20063;-51
2023/08/10 12:27:41;;;;;;;5.95;3.05;;;23.70;99.90;;;;;;4802387;29;20047;-51
2023/08/10 12:30:09;;;;;;;5.43;3.28;;;23.70;99.90;;;;;;4801722;29;20495;-51
2023/08/10 12:32:34;;;;;;;6.40;2.80;;;23.80;99.90;;;;;;4802379;29;20053;-52
2023/08/10 12:35:01;;;;;;;4.88;2.63;;;23.80;99.90;;;;;;4802589;29;20039;-50
2023/08/10 12:37:26;;;;;;;5.38;3.05;;;24.00;99.90;;;;;;4801756;29;20115;-50
2023/08/10 12:39:53;;;;;;;5.47;2.83;;;24.10;99.90;;;;;;4802190;29;20046;-52
2023/08/10 12:42:19;;;;;;;5.28;2.10;;;24.10;99.90;;;;;;4800517;29;20361;-51
2023/08/10 12:44:45;;;;;;;6.10;2.83;;;24.20;99.90;;;;;;4802126;29;20045;-50
2023/08/10 12:47:10;;;;;;;5.28;2.65;;;24.20;99.90;;;;;;4801998;29;20105;-52